Time;durP1;ratioP1;P1;durP2;ratioP2;P2;SDS_P1;SDS_P2;PMS_P1;PMS_P2;Temp;Humidity;BMP_temperature;BMP_pressure;BME280_temperature;BME280_humidity;BME280_pressure;Samples;Min_cycle;Max_cycle;Signal;HPM_P1;HPM_P2
2022/03/25 00:01:03;;;;;;;38.78;17.80;;;;;;;;;;4954740;29;20476;-60
2022/03/25 00:03:29;;;;;;;38.25;17.95;;;;;;;;;;4955063;29;20488;-60
2022/03/25 00:05:55;;;;;;;34.63;17.10;;;;;;;;;;4954748;29;20029;-60
2022/03/25 00:08:21;;;;;;;37.33;17.45;;;;;;;;;;4954814;29;20027;-60
2022/03/25 00:10:47;;;;;;;35.65;17.90;;;;;;;;;;4954971;29;20035;-62
2022/03/25 00:13:13;;;;;;;36.90;17.42;;;;;;;;;;4954718;29;20191;-61
2022/03/25 00:15:39;;;;;;;35.47;16.83;;;;;;;;;;4954836;29;20031;-60
2022/03/25 00:18:06;;;;;;;48.70;19.55;;;;;;;;;;4954952;29;20035;-60
2022/03/25 00:20:32;;;;;;;42.17;17.98;;;;;;;;;;4937468;29;20380;-61
2022/03/25 00:22:58;;;;;;;35.25;17.40;;;;;;;;;;4954625;29;20024;-59
2022/03/25 00:25:24;;;;;;;31.23;16.50;;;;;;;;;;4954735;29;20030;-60
2022/03/25 00:27:50;;;;;;;34.20;16.77;;;;;;;;;;4954712;28;20064;-61
2022/03/25 00:30:17;;;;;;;38.85;17.23;;;;;;;;;;4954300;28;20062;-60
2022/03/25 00:32:43;;;;;;;33.58;16.67;;;;;;;;;;4954761;29;20036;-60
2022/03/25 00:35:10;;;;;;;38.53;17.70;;;;;;;;;;4954428;29;20523;-59
2022/03/25 00:37:36;;;;;;;41.83;17.80;;;;;;;;;;4954627;29;20038;-60
2022/03/25 00:40:02;;;;;;;37.05;17.90;;;;;;;;;;4954636;29;20075;-60
2022/03/25 00:42:29;;;;;;;44.58;18.95;;;;;;;;;;4954542;29;20042;-60
2022/03/25 00:44:55;;;;;;;41.15;17.95;;;;;;;;;;4954675;29;20596;-59
2022/03/25 00:47:23;;;;;;;39.17;17.77;;;;;;;;;;4954621;29;20035;-60
2022/03/25 00:49:50;;;;;;;40.45;18.73;;;;;;;;;;4937745;29;20106;-60
2022/03/25 00:52:16;;;;;;;39.00;17.60;;;;;;;;;;4954395;29;20027;-60
2022/03/25 00:54:42;;;;;;;35.20;15.55;;;;;;;;;;4954265;29;20107;-60
2022/03/25 00:57:09;;;;;;;34.67;16.42;;;;;;;;;;4954530;29;20031;-59
2022/03/25 00:59:35;;;;;;;33.30;15.95;;;;;;;;;;4953980;28;20399;-59
2022/03/25 01:02:01;;;;;;;35.55;16.38;;;;;;;;;;4954315;29;20050;-59
2022/03/25 01:04:28;;;;;;;34.58;16.90;;;;;;;;;;4954218;29;20111;-60
2022/03/25 01:06:54;;;;;;;36.08;17.33;;;;;;;;;;4954282;29;20031;-59
2022/03/25 01:09:20;;;;;;;40.40;16.80;;;;;;;;;;4954271;29;20031;-59
2022/03/25 01:11:46;;;;;;;40.65;17.42;;;;;;;;;;4954054;29;20039;-60
2022/03/25 01:14:13;;;;;;;44.42;17.98;;;;;;;;;;4954041;29;20035;-58
2022/03/25 01:16:39;;;;;;;35.85;17.70;;;;;;;;;;4954059;29;20440;-60
2022/03/25 01:19:05;;;;;;;36.50;17.10;;;;;;;;;;4954023;29;20102;-60
2022/03/25 01:21:31;;;;;;;26.15;12.05;;;;;;;;;;4953964;29;20050;-60
2022/03/25 01:23:58;;;;;;;23.10;11.18;;;;;;;;;;4953890;29;20495;-60
2022/03/25 01:26:24;;;;;;;23.45;10.43;;;;;;;;;;4953588;29;20121;-60
2022/03/25 01:28:52;;;;;;;24.95;12.95;;;;;;;;;;4953626;28;20046;-60
2022/03/25 01:31:19;;;;;;;26.98;13.25;;;;;;;;;;4953659;29;20407;-60
2022/03/25 01:33:45;;;;;;;32.03;14.95;;;;;;;;;;4953553;29;20087;-60
2022/03/25 01:36:12;;;;;;;23.55;11.75;;;;;;;;;;4953409;29;20043;-60
2022/03/25 01:38:39;;;;;;;23.38;10.27;;;;;;;;;;4953789;29;20762;-60
2022/03/25 01:41:07;;;;;;;21.30;8.43;;;;;;;;;;4953585;29;20476;-60
2022/03/25 01:43:33;;;;;;;23.85;9.80;;;;;;;;;;4953566;29;20031;-60
2022/03/25 01:45:59;;;;;;;19.48;8.70;;;;;;;;;;4953545;29;20547;-60
2022/03/25 01:48:25;;;;;;;18.80;8.75;;;;;;;;;;4953533;29;20035;-60
2022/03/25 01:50:52;;;;;;;17.10;8.88;;;;;;;;;;4953122;29;20031;-61
2022/03/25 01:53:21;;;;;;;18.20;8.15;;;;;;;;;;4953209;29;20073;-60
2022/03/25 01:55:52;;;;;;;15.75;8.02;;;;;;;;;;4953572;29;20476;-62
2022/03/25 01:58:19;;;;;;;16.83;7.32;;;;;;;;;;4953507;29;20041;-62
2022/03/25 02:00:46;;;;;;;18.23;7.68;;;;;;;;;;4953188;29;20027;-60
2022/03/25 02:03:13;;;;;;;21.02;7.65;;;;;;;;;;4953513;29;20055;-60
2022/03/25 02:05:39;;;;;;;27.27;8.48;;;;;;;;;;4953099;29;20468;-59
2022/03/25 02:08:05;;;;;;;19.45;7.80;;;;;;;;;;4953423;29;20034;-58
2022/03/25 02:10:31;;;;;;;20.13;8.98;;;;;;;;;;4952419;28;20106;-60
2022/03/25 02:12:57;;;;;;;18.52;8.27;;;;;;;;;;4952996;29;20040;-61
2022/03/25 02:15:33;;;;;;;21.10;7.78;;;;;;;;;;4953176;29;20037;-59
2022/03/25 02:18:01;;;;;;;16.80;7.85;;;;;;;;;;4953242;29;20106;-61
2022/03/25 02:20:27;;;;;;;14.90;7.47;;;;;;;;;;4952929;29;20069;-60
2022/03/25 02:22:53;;;;;;;14.77;7.43;;;;;;;;;;4953055;29;20031;-60
2022/03/25 02:25:21;;;;;;;15.70;7.38;;;;;;;;;;4953082;29;20063;-60
2022/03/25 02:27:48;;;;;;;19.27;7.90;;;;;;;;;;4952984;29;20019;-59
2022/03/25 02:30:14;;;;;;;17.20;7.65;;;;;;;;;;4952801;29;20051;-60
2022/03/25 02:32:40;;;;;;;17.42;7.97;;;;;;;;;;4953079;29;20041;-61
2022/03/25 02:35:06;;;;;;;19.92;7.57;;;;;;;;;;4952602;29;20090;-59
2022/03/25 02:37:33;;;;;;;16.48;7.82;;;;;;;;;;4952650;29;20038;-60
2022/03/25 02:39:59;;;;;;;17.58;8.07;;;;;;;;;;4952934;29;20027;-59
2022/03/25 02:42:25;;;;;;;16.25;8.25;;;;;;;;;;4952735;29;20388;-60
2022/03/25 02:44:51;;;;;;;14.70;8.23;;;;;;;;;;4952477;29;20750;-59
2022/03/25 02:47:18;;;;;;;19.58;8.20;;;;;;;;;;4952766;29;20042;-61
2022/03/25 02:49:44;;;;;;;14.15;7.88;;;;;;;;;;4952802;29;20102;-60
2022/03/25 02:52:10;;;;;;;16.02;8.00;;;;;;;;;;4952370;29;20280;-60
2022/03/25 02:54:36;;;;;;;16.88;7.72;;;;;;;;;;4952713;29;20038;-61
2022/03/25 02:57:02;;;;;;;14.55;8.63;;;;;;;;;;4952502;29;20110;-59
2022/03/25 02:59:28;;;;;;;17.95;8.13;;;;;;;;;;4952186;29;20046;-59
2022/03/25 03:01:54;;;;;;;17.23;8.20;;;;;;;;;;4953693;29;20439;-59
2022/03/25 03:04:21;;;;;;;16.60;8.35;;;;;;;;;;4952879;29;20029;-59
2022/03/25 03:06:47;;;;;;;16.45;7.88;;;;;;;;;;4952229;29;20023;-59
2022/03/25 03:09:13;;;;;;;18.60;8.02;;;;;;;;;;4952112;29;20259;-59
2022/03/25 03:11:39;;;;;;;15.25;7.47;;;;;;;;;;4952244;29;20027;-60
2022/03/25 03:14:05;;;;;;;17.02;8.05;;;;;;;;;;4952316;29;20058;-59
2022/03/25 03:16:31;;;;;;;19.98;8.50;;;;;;;;;;4952454;29;20062;-59
2022/03/25 03:18:57;;;;;;;19.63;8.30;;;;;;;;;;4952145;29;20035;-59
2022/03/25 03:21:24;;;;;;;18.17;7.90;;;;;;;;;;4953493;28;20103;-59
2022/03/25 03:23:54;;;;;;;19.42;8.35;;;;;;;;;;4955955;29;20055;-60
2022/03/25 03:26:20;;;;;;;18.65;9.32;;;;;;;;;;4956169;29;20031;-60
2022/03/25 03:28:46;;;;;;;23.42;12.63;;;;;;;;;;4955969;28;20110;-59
2022/03/25 03:31:13;;;;;;;17.27;8.90;;;;;;;;;;4955800;29;20043;-59
2022/03/25 03:33:39;;;;;;;14.50;7.28;;;;;;;;;;4955936;29;20107;-59
2022/03/25 03:36:05;;;;;;;18.45;7.40;;;;;;;;;;4956185;29;20475;-59
2022/03/25 03:38:31;;;;;;;14.15;7.45;;;;;;;;;;4956251;29;20655;-59
2022/03/25 03:40:57;;;;;;;14.20;7.57;;;;;;;;;;4956014;29;20089;-60
2022/03/25 03:43:23;;;;;;;14.85;7.10;;;;;;;;;;4955717;29;20476;-59
2022/03/25 03:45:49;;;;;;;13.45;7.40;;;;;;;;;;4955801;29;20031;-59
2022/03/25 03:48:15;;;;;;;13.95;6.72;;;;;;;;;;4955606;29;20130;-59
2022/03/25 03:50:41;;;;;;;12.00;6.55;;;;;;;;;;4955539;29;20027;-61
2022/03/25 03:53:08;;;;;;;14.02;6.47;;;;;;;;;;4955558;29;20463;-60
2022/03/25 03:55:34;;;;;;;15.82;7.22;;;;;;;;;;4955913;29;20030;-60
2022/03/25 03:58:00;;;;;;;15.18;7.18;;;;;;;;;;4955497;29;20027;-59
2022/03/25 04:00:26;;;;;;;17.33;7.15;;;;;;;;;;4955397;29;20039;-61
2022/03/25 04:02:52;;;;;;;17.70;7.00;;;;;;;;;;4955515;29;20023;-62
2022/03/25 04:05:19;;;;;;;17.25;6.35;;;;;;;;;;4955376;29;20030;-61
2022/03/25 04:07:45;;;;;;;14.48;6.85;;;;;;;;;;4954993;29;20035;-60
2022/03/25 04:10:12;;;;;;;14.88;7.40;;;;;;;;;;4955192;29;20023;-60
2022/03/25 04:12:39;;;;;;;16.33;7.10;;;;;;;;;;4954836;29;20066;-58
2022/03/25 04:15:09;;;;;;;13.25;6.88;;;;;;;;;;4955279;29;20077;-59
2022/03/25 04:17:35;;;;;;;16.83;7.25;;;;;;;;;;4955020;29;20447;-58
2022/03/25 04:20:01;;;;;;;17.92;7.10;;;;;;;;;;4955116;29;20594;-58
2022/03/25 04:22:27;;;;;;;15.02;7.40;;;;;;;;;;4954549;29;20512;-58
2022/03/25 04:24:55;;;;;;;12.85;7.70;;;;;;;;;;4954856;29;20027;-58
2022/03/25 04:27:22;;;;;;;15.65;8.05;;;;;;;;;;4954715;29;20098;-58
2022/03/25 04:29:48;;;;;;;15.98;7.57;;;;;;;;;;4954480;28;20150;-58
2022/03/25 04:32:14;;;;;;;18.48;7.75;;;;;;;;;;4954457;29;20122;-58
2022/03/25 04:34:40;;;;;;;13.73;7.45;;;;;;;;;;4953765;28;20054;-58
2022/03/25 04:37:07;;;;;;;14.90;7.65;;;;;;;;;;4954386;29;20090;-60
2022/03/25 04:39:33;;;;;;;14.90;7.57;;;;;;;;;;4954908;29;20011;-58
2022/03/25 04:41:59;;;;;;;12.57;6.95;;;;;;;;;;4954302;29;20031;-58
2022/03/25 04:44:25;;;;;;;14.43;8.00;;;;;;;;;;4954842;29;20031;-60
2022/03/25 04:46:53;;;;;;;17.30;7.65;;;;;;;;;;4954685;29;20077;-60
2022/03/25 04:49:19;;;;;;;17.42;7.53;;;;;;;;;;4954395;29;20027;-60
2022/03/25 04:51:45;;;;;;;16.00;7.88;;;;;;;;;;4954321;29;20428;-58
2022/03/25 04:54:11;;;;;;;18.88;7.35;;;;;;;;;;4954751;29;20499;-58
2022/03/25 04:56:38;;;;;;;18.13;7.60;;;;;;;;;;4954601;29;20035;-60
2022/03/25 04:59:04;;;;;;;19.20;8.13;;;;;;;;;;4954443;29;20061;-61
2022/03/25 05:01:30;;;;;;;18.30;8.15;;;;;;;;;;4954373;29;20031;-61
2022/03/25 05:03:56;;;;;;;22.88;10.20;;;;;;;;;;4954488;29;20027;-60
2022/03/25 05:06:22;;;;;;;20.10;8.80;;;;;;;;;;4954002;29;20034;-61
2022/03/25 05:08:48;;;;;;;17.13;8.95;;;;;;;;;;4954178;29;20027;-60
2022/03/25 05:11:14;;;;;;;16.85;8.85;;;;;;;;;;4957391;28;20031;-61
2022/03/25 05:13:40;;;;;;;18.75;8.02;;;;;;;;;;4962720;28;20045;-60
2022/03/25 05:16:06;;;;;;;22.38;8.02;;;;;;;;;;4970025;28;20484;-62
2022/03/25 05:18:32;;;;;;;20.58;7.97;;;;;;;;;;4973707;28;20039;-60
2022/03/25 05:21:00;;;;;;;13.88;7.15;;;;;;;;;;4968383;28;20034;-60
2022/03/25 05:23:26;;;;;;;20.73;8.07;;;;;;;;;;4969302;28;20044;-60
2022/03/25 05:25:52;;;;;;;17.52;7.20;;;;;;;;;;4973111;28;20037;-61
2022/03/25 05:28:19;;;;;;;15.73;7.90;;;;;;;;;;4972849;28;20066;-60
2022/03/25 05:30:45;;;;;;;18.80;8.57;;;;;;;;;;4971794;28;20105;-60
2022/03/25 05:33:11;;;;;;;19.33;7.88;;;;;;;;;;4966656;28;20045;-61
2022/03/25 05:35:37;;;;;;;16.88;8.10;;;;;;;;;;4958609;28;20030;-63
2022/03/25 05:38:03;;;;;;;18.33;8.32;;;;;;;;;;4951868;29;20053;-61
2022/03/25 05:40:30;;;;;;;21.98;8.23;;;;;;;;;;4954977;28;20111;-61
2022/03/25 05:42:56;;;;;;;18.35;9.90;;;;;;;;;;4966132;28;20046;-62
2022/03/25 05:45:23;;;;;;;22.73;11.90;;;;;;;;;;4955082;28;20043;-62
2022/03/25 05:47:50;;;;;;;18.83;8.65;;;;;;;;;;4952342;29;20035;-62
2022/03/25 05:50:16;;;;;;;19.27;8.30;;;;;;;;;;4952976;28;20023;-62
2022/03/25 05:52:43;;;;;;;21.95;9.60;;;;;;;;;;4951684;28;20118;-60
2022/03/25 05:55:09;;;;;;;18.45;8.90;;;;;;;;;;4952141;29;20027;-59
2022/03/25 05:57:36;;;;;;;16.85;9.20;;;;;;;;;;4951864;29;20047;-62
2022/03/25 06:00:02;;;;;;;16.77;8.88;;;;;;;;;;4952105;29;20106;-61
2022/03/25 06:02:28;;;;;;;19.38;8.95;;;;;;;;;;4952319;29;20102;-61
2022/03/25 06:04:55;;;;;;;28.55;10.65;;;;;;;;;;4952861;29;20059;-60
2022/03/25 06:07:22;;;;;;;16.33;9.88;;;;;;;;;;4953024;29;20038;-60
2022/03/25 06:09:48;;;;;;;20.45;9.70;;;;;;;;;;4953188;29;20138;-62
2022/03/25 06:12:14;;;;;;;20.58;9.85;;;;;;;;;;4952758;29;20027;-60
2022/03/25 06:14:41;;;;;;;24.25;10.50;;;;;;;;;;4953184;29;20475;-60
2022/03/25 06:17:07;;;;;;;19.15;10.15;;;;;;;;;;4952854;29;20491;-61
2022/03/25 06:19:33;;;;;;;24.52;10.95;;;;;;;;;;4953030;29;20426;-61
2022/03/25 06:21:59;;;;;;;24.23;12.20;;;;;;;;;;4952836;29;20077;-61
2022/03/25 06:24:26;;;;;;;21.65;10.63;;;;;;;;;;4952617;29;20388;-62
2022/03/25 06:26:53;;;;;;;26.50;12.35;;;;;;;;;;4952938;29;20028;-61
2022/03/25 06:29:19;;;;;;;25.92;12.60;;;;;;;;;;4952784;28;20062;-61
2022/03/25 06:31:46;;;;;;;26.20;12.65;;;;;;;;;;4952146;29;20043;-61
2022/03/25 06:34:12;;;;;;;25.58;12.05;;;;;;;;;;4952616;29;20039;-61
2022/03/25 06:36:38;;;;;;;19.50;10.60;;;;;;;;;;4952128;29;20494;-61
2022/03/25 06:39:04;;;;;;;25.83;12.02;;;;;;;;;;4950865;29;20027;-60
2022/03/25 06:41:30;;;;;;;23.25;11.05;;;;;;;;;;4951262;29;20119;-62
2022/03/25 06:43:57;;;;;;;20.20;10.93;;;;;;;;;;4951220;29;20030;-60
2022/03/25 06:46:23;;;;;;;20.35;11.02;;;;;;;;;;4951188;29;20050;-60
2022/03/25 06:48:49;;;;;;;21.35;11.55;;;;;;;;;;4951016;29;20269;-60
2022/03/25 06:51:16;;;;;;;21.08;11.45;;;;;;;;;;4951658;29;20032;-60
2022/03/25 06:53:42;;;;;;;36.40;18.38;;;;;;;;;;4952246;29;20130;-60
2022/03/25 06:56:09;;;;;;;31.23;18.55;;;;;;;;;;4952285;28;20033;-60
2022/03/25 06:58:37;;;;;;;25.20;12.65;;;;;;;;;;4956243;29;20126;-60
2022/03/25 07:01:03;;;;;;;22.92;10.57;;;;;;;;;;4956261;29;20054;-60
2022/03/25 07:03:30;;;;;;;25.73;11.00;;;;;;;;;;4956282;29;20043;-60
2022/03/25 07:05:59;;;;;;;24.52;10.45;;;;;;;;;;4956357;29;20035;-60
2022/03/25 07:08:26;;;;;;;17.75;9.90;;;;;;;;;;4956314;29;20027;-60
2022/03/25 07:10:52;;;;;;;19.83;10.10;;;;;;;;;;4956635;29;20046;-60
2022/03/25 07:13:18;;;;;;;25.63;11.00;;;;;;;;;;4956277;29;20070;-60
2022/03/25 07:15:44;;;;;;;22.92;9.98;;;;;;;;;;4956055;29;20031;-61
2022/03/25 07:18:10;;;;;;;20.60;10.57;;;;;;;;;;4955882;29;20023;-60
2022/03/25 07:20:36;;;;;;;22.83;10.73;;;;;;;;;;4956155;29;20035;-61
2022/03/25 07:23:02;;;;;;;25.00;11.38;;;;;;;;;;4955634;29;20081;-61
2022/03/25 07:25:30;;;;;;;25.73;11.18;;;;;;;;;;4955992;29;20090;-61
2022/03/25 07:27:56;;;;;;;44.30;8.88;;;;;;;;;;4955489;28;20027;-57
2022/03/25 07:30:22;;;;;;;20.33;11.05;;;;;;;;;;4955407;29;20047;-58
2022/03/25 07:32:48;;;;;;;20.23;10.50;;;;;;;;;;4955566;29;20039;-58
2022/03/25 07:35:14;;;;;;;20.15;10.63;;;;;;;;;;4955733;29;20027;-58
2022/03/25 07:37:41;;;;;;;19.55;10.13;;;;;;;;;;4955813;29;20035;-58
2022/03/25 07:40:11;;;;;;;27.20;11.10;;;;;;;;;;4955741;29;20034;-58
2022/03/25 07:42:39;;;;;;;22.13;10.77;;;;;;;;;;4955432;29;20395;-57
2022/03/25 07:45:08;;;;;;;21.75;11.52;;;;;;;;;;4955768;29;20106;-57
2022/03/25 07:47:35;;;;;;;24.77;10.23;;;;;;;;;;4955562;29;20114;-58
2022/03/25 07:50:01;;;;;;;22.50;10.80;;;;;;;;;;4955397;29;20108;-60
2022/03/25 07:52:28;;;;;;;24.27;11.65;;;;;;;;;;4955217;29;20054;-58
2022/03/25 07:54:54;;;;;;;24.00;11.20;;;;;;;;;;4955377;29;20055;-59
2022/03/25 07:57:21;;;;;;;25.88;11.85;;;;;;;;;;4955565;29;20050;-57
2022/03/25 07:59:47;;;;;;;23.05;10.85;;;;;;;;;;4950312;28;20066;-57
2022/03/25 08:02:13;;;;;;;25.02;11.38;;;;;;;;;;4953029;29;20412;-57
2022/03/25 08:04:39;;;;;;;22.75;11.23;;;;;;;;;;4954619;29;20498;-57
2022/03/25 08:07:05;;;;;;;16.80;9.13;;;;;;;;;;4954659;28;20114;-57
2022/03/25 08:09:31;;;;;;;22.08;10.65;;;;;;;;;;4953241;29;20046;-56
2022/03/25 08:11:57;;;;;;;18.58;9.48;;;;;;;;;;4954325;29;20027;-57
2022/03/25 08:14:23;;;;;;;20.00;9.18;;;;;;;;;;4954455;29;20496;-57
2022/03/25 08:16:49;;;;;;;21.23;8.00;;;;;;;;;;4954374;28;20024;-57
2022/03/25 08:19:15;;;;;;;12.70;7.00;;;;;;;;;;4954395;28;20074;-61
2022/03/25 08:21:41;;;;;;;19.75;8.43;;;;;;;;;;4954274;29;20031;-57
2022/03/25 08:29:38;;;;;;;17.05;9.85;;;;;;;;;;4957303;28;20049;-56
2022/03/25 08:32:05;;;;;;;18.05;8.60;;;;;;;;;;4967362;28;20031;-57
2022/03/25 08:34:31;;;;;;;37.97;18.90;;;;;;;;;;4957424;28;20031;-56
2022/03/25 08:36:57;;;;;;;30.75;16.30;;;;;;;;;;4969842;28;20106;-58
2022/03/25 08:39:23;;;;;;;16.90;9.02;;;;;;;;;;4961785;28;20073;-58
2022/03/25 08:41:50;;;;;;;17.33;8.68;;;;;;;;;;4962990;28;20031;-57
2022/03/25 08:44:16;;;;;;;17.45;9.02;;;;;;;;;;4968483;28;20086;-58
2022/03/25 08:46:42;;;;;;;15.18;8.68;;;;;;;;;;4957447;28;20034;-58
2022/03/25 08:49:10;;;;;;;22.38;12.43;;;;;;;;;;4967853;28;20032;-62
2022/03/25 08:51:36;;;;;;;12.18;7.10;;;;;;;;;;4962768;28;20097;-57
2022/03/25 08:54:02;;;;;;;16.52;8.07;;;;;;;;;;4960436;28;20050;-59
2022/03/25 08:56:29;;;;;;;17.55;8.13;;;;;;;;;;4970001;28;20026;-57
2022/03/25 08:58:57;;;;;;;18.23;7.57;;;;;;;;;;4957195;28;20073;-58
2022/03/25 09:01:23;;;;;;;19.00;8.95;;;;;;;;;;4950508;28;20023;-58
2022/03/25 09:03:49;;;;;;;16.08;9.05;;;;;;;;;;4961960;28;20031;-58
2022/03/25 09:06:15;;;;;;;12.48;7.90;;;;;;;;;;4953082;28;20483;-61
2022/03/25 09:08:41;;;;;;;16.00;9.50;;;;;;;;;;4943616;28;20035;-59
2022/03/25 09:11:09;;;;;;;14.43;7.78;;;;;;;;;;4966137;28;20531;-57
2022/03/25 09:13:35;;;;;;;12.60;7.55;;;;;;;;;;4936359;28;20031;-58
2022/03/25 09:16:02;;;;;;;19.80;8.95;;;;;;;;;;4959191;28;20027;-59
2022/03/25 09:18:28;;;;;;;14.35;8.13;;;;;;;;;;4956456;28;20464;-56
2022/03/25 09:20:54;;;;;;;14.90;9.30;;;;;;;;;;4968759;28;20024;-57
2022/03/25 09:23:20;;;;;;;17.13;7.88;;;;;;;;;;4960610;28;20031;-57
2022/03/25 09:25:46;;;;;;;15.60;8.45;;;;;;;;;;4962216;28;20155;-56
2022/03/25 09:28:12;;;;;;;19.88;9.82;;;;;;;;;;4967312;28;20031;-58
2022/03/25 09:30:39;;;;;;;15.27;7.70;;;;;;;;;;4954274;28;20117;-58
2022/03/25 09:33:07;;;;;;;16.13;7.25;;;;;;;;;;4950650;29;20043;-57
2022/03/25 09:35:33;;;;;;;17.08;8.45;;;;;;;;;;4950326;29;20090;-57
2022/03/25 09:37:59;;;;;;;18.02;8.68;;;;;;;;;;4940966;29;20259;-60
2022/03/25 09:40:27;;;;;;;15.32;8.57;;;;;;;;;;4949806;29;20157;-57
2022/03/25 09:42:55;;;;;;;16.90;9.23;;;;;;;;;;4937426;29;20026;-57
2022/03/25 09:45:22;;;;;;;12.77;6.18;;;;;;;;;;4960050;28;20053;-60
2022/03/25 09:47:49;;;;;;;15.65;8.70;;;;;;;;;;4961618;28;20484;-61
2022/03/25 09:50:17;;;;;;;15.43;7.85;;;;;;;;;;4967109;28;20035;-58
2022/03/25 09:52:44;;;;;;;19.15;8.25;;;;;;;;;;4956314;28;20518;-58
2022/03/25 09:55:11;;;;;;;18.40;7.88;;;;;;;;;;4951102;28;20396;-60
2022/03/25 09:57:37;;;;;;;19.02;7.82;;;;;;;;;;4952840;29;20436;-58
2022/03/25 10:00:04;;;;;;;15.10;7.53;;;;;;;;;;4946989;29;20023;-57
2022/03/25 10:02:30;;;;;;;15.63;6.85;;;;;;;;;;4949468;29;20530;-57
2022/03/25 10:04:56;;;;;;;16.45;8.55;;;;;;;;;;4946955;29;20539;-59
2022/03/25 10:07:23;;;;;;;14.35;7.85;;;;;;;;;;4948162;29;20055;-60
2022/03/25 10:09:50;;;;;;;15.43;8.25;;;;;;;;;;4948805;29;20043;-57
2022/03/25 10:12:24;;;;;;;14.82;6.63;;;;;;;;;;4948654;29;20030;-57
2022/03/25 10:15:10;;;;;;;14.20;7.53;;;;;;;;;;4950358;28;20445;-58
2022/03/25 10:17:56;;;;;;;15.55;6.90;;;;;;;;;;4947731;29;20863;-57
2022/03/25 10:20:42;;;;;;;12.77;6.63;;;;;;;;;;4948804;29;20094;-62
2022/03/25 10:23:11;;;;;;;13.98;6.90;;;;;;;;;;4949206;29;20019;-58
2022/03/25 10:25:40;;;;;;;18.92;5.80;;;;;;;;;;4949469;29;20027;-58
2022/03/25 10:28:17;;;;;;;11.25;6.65;;;;;;;;;;4949390;28;20031;-57
2022/03/25 10:30:44;;;;;;;16.35;6.10;;;;;;;;;;4951611;29;20039;-58
2022/03/25 10:33:19;;;;;;;13.75;6.68;;;;;;;;;;4952701;29;20050;-58
2022/03/25 10:36:08;;;;;;;13.43;6.43;;;;;;;;;;4952842;29;20078;-58
2022/03/25 10:38:43;;;;;;;10.77;7.07;;;;;;;;;;4953077;29;20035;-60
2022/03/25 10:41:09;;;;;;;14.55;6.65;;;;;;;;;;4952202;29;20031;-55
2022/03/25 10:43:35;;;;;;;11.88;6.22;;;;;;;;;;4951929;29;20043;-56
2022/03/25 10:46:02;;;;;;;12.95;7.15;;;;;;;;;;4951234;29;20035;-60
2022/03/25 10:48:28;;;;;;;13.45;5.82;;;;;;;;;;4951981;29;20047;-61
2022/03/25 10:51:02;;;;;;;11.93;6.85;;;;;;;;;;4951005;29;20031;-58
2022/03/25 10:53:29;;;;;;;10.80;6.35;;;;;;;;;;4950486;28;20035;-58
2022/03/25 10:55:55;;;;;;;13.20;6.72;;;;;;;;;;4933739;29;20039;-59
2022/03/25 10:58:21;;;;;;;12.93;6.85;;;;;;;;;;4948503;29;20031;-58
2022/03/25 11:00:47;;;;;;;13.38;7.03;;;;;;;;;;4948905;29;20035;-59
2022/03/25 11:03:17;;;;;;;14.25;6.32;;;;;;;;;;4946592;29;20032;-57
2022/03/25 11:05:46;;;;;;;13.90;6.95;;;;;;;;;;4947668;29;20152;-58
2022/03/25 11:08:13;;;;;;;15.00;6.70;;;;;;;;;;4949480;29;20387;-58
2022/03/25 11:10:39;;;;;;;12.25;6.07;;;;;;;;;;4947848;29;20119;-58
2022/03/25 11:13:06;;;;;;;18.52;7.20;;;;;;;;;;4947386;29;20039;-58
2022/03/25 11:15:33;;;;;;;16.55;6.63;;;;;;;;;;4949711;29;20027;-58
2022/03/25 11:17:59;;;;;;;10.98;6.10;;;;;;;;;;4949877;29;20491;-57
2022/03/25 11:20:27;;;;;;;14.98;6.55;;;;;;;;;;4950586;29;20031;-60
2022/03/25 11:22:58;;;;;;;17.83;7.70;;;;;;;;;;4948985;29;20031;-58
2022/03/25 11:25:25;;;;;;;14.13;6.78;;;;;;;;;;4951824;29;20036;-58
2022/03/25 11:28:03;;;;;;;13.68;6.70;;;;;;;;;;4949231;29;20031;-59
2022/03/25 11:30:33;;;;;;;19.63;7.72;;;;;;;;;;4950194;29;20043;-58
2022/03/25 11:33:03;;;;;;;12.77;6.82;;;;;;;;;;4946775;29;20039;-58
2022/03/25 11:35:32;;;;;;;16.90;7.68;;;;;;;;;;4948857;29;20059;-59
2022/03/25 11:38:13;;;;;;;13.85;7.20;;;;;;;;;;4948382;29;20031;-62
2022/03/25 11:40:44;;;;;;;14.20;7.45;;;;;;;;;;4949169;29;20383;-57
2022/03/25 11:43:25;;;;;;;9.27;4.37;;;;;;;;;;4952549;28;20031;-58
2022/03/25 11:46:00;;;;;;;16.33;7.55;;;;;;;;;;4951753;29;20073;-57
2022/03/25 11:48:26;;;;;;;13.07;7.40;;;;;;;;;;4951943;29;20086;-58
2022/03/25 11:50:57;;;;;;;17.48;6.63;;;;;;;;;;4951916;28;20074;-58
2022/03/25 11:53:23;;;;;;;13.77;6.90;;;;;;;;;;4954476;29;20106;-58
2022/03/25 11:55:51;;;;;;;14.65;7.75;;;;;;;;;;4954702;29;20106;-58
2022/03/25 11:58:18;;;;;;;15.85;7.45;;;;;;;;;;4950785;29;20475;-58
2022/03/25 12:00:45;;;;;;;18.55;7.90;;;;;;;;;;4952832;29;20034;-58
2022/03/25 12:03:13;;;;;;;15.68;7.15;;;;;;;;;;4953222;29;20023;-58
2022/03/25 12:05:39;;;;;;;17.98;7.60;;;;;;;;;;4951430;29;20030;-59
2022/03/25 12:08:24;;;;;;;18.25;6.70;;;;;;;;;;4950365;29;20035;-59
2022/03/25 12:10:52;;;;;;;16.17;7.45;;;;;;;;;;4950086;29;20032;-58
2022/03/25 12:13:18;;;;;;;12.27;6.88;;;;;;;;;;4949459;29;20039;-58
2022/03/25 12:15:45;;;;;;;14.02;6.88;;;;;;;;;;4950056;29;20046;-59
2022/03/25 12:18:35;;;;;;;10.15;4.88;;;;;;;;;;4951502;29;20054;-61
2022/03/25 12:21:01;;;;;;;12.32;5.20;;;;;;;;;;4868503;29;20581;-58
2022/03/25 12:23:27;;;;;;;17.10;6.43;;;;;;;;;;4877027;29;20045;-58
2022/03/25 12:25:54;;;;;;;14.55;7.10;;;;;;;;;;4876016;29;20033;-59
2022/03/25 12:28:23;;;;;;;14.20;6.95;;;;;;;;;;4854877;29;20040;-58
2022/03/25 12:30:50;;;;;;;13.07;6.63;;;;;;;;;;4866836;29;20222;-59
2022/03/25 12:33:19;;;;;;;13.30;7.32;;;;;;;;;;4861640;29;20062;-58
2022/03/25 12:35:45;;;;;;;11.13;5.18;;;;;;;;;;4846955;29;20560;-57
2022/03/25 12:38:24;;;;;;;14.30;6.45;;;;;;;;;;4852433;29;20175;-58
2022/03/25 12:40:51;;;;;;;13.18;6.07;;;;;;;;;;4846758;29;20066;-59
2022/03/25 12:43:17;;;;;;;11.85;6.30;;;;;;;;;;4850719;29;20108;-58
2022/03/25 12:45:45;;;;;;;12.40;7.05;;;;;;;;;;4852045;29;20045;-58
2022/03/25 12:48:12;;;;;;;13.23;7.32;;;;;;;;;;4849980;29;20030;-57
2022/03/25 12:50:45;;;;;;;15.57;6.60;;;;;;;;;;4851959;29;20487;-57
2022/03/25 12:53:11;;;;;;;15.10;6.70;;;;;;;;;;4851354;29;20041;-58
2022/03/25 12:55:38;;;;;;;12.43;6.43;;;;;;;;;;4857568;29;20844;-58
2022/03/25 12:58:08;;;;;;;13.63;6.15;;;;;;;;;;4910582;29;20047;-59
2022/03/25 13:00:36;;;;;;;17.98;6.72;;;;;;;;;;4953008;28;20075;-58
2022/03/25 13:03:02;;;;;;;14.60;6.45;;;;;;;;;;4949151;29;20028;-58
2022/03/25 13:05:28;;;;;;;10.18;5.35;;;;;;;;;;4952209;29;20030;-58
2022/03/25 13:07:57;;;;;;;11.77;6.07;;;;;;;;;;4950379;29;20031;-58
2022/03/25 13:10:24;;;;;;;13.60;5.47;;;;;;;;;;4949338;29;20035;-58
2022/03/25 13:12:52;;;;;;;11.18;5.93;;;;;;;;;;4949410;29;20040;-59
2022/03/25 13:15:18;;;;;;;14.27;6.55;;;;;;;;;;4950193;29;20035;-57
2022/03/25 13:17:46;;;;;;;17.20;7.35;;;;;;;;;;4950342;29;20023;-59
2022/03/25 13:20:16;;;;;;;16.63;6.60;;;;;;;;;;4953361;29;20026;-58
2022/03/25 13:23:00;;;;;;;16.70;6.18;;;;;;;;;;4953637;29;20415;-59
2022/03/25 13:25:36;;;;;;;11.95;6.38;;;;;;;;;;4953333;29;20125;-58
2022/03/25 13:28:03;;;;;;;12.93;5.30;;;;;;;;;;4953191;28;20027;-59
2022/03/25 13:30:30;;;;;;;11.93;5.75;;;;;;;;;;4953509;29;20081;-61
2022/03/25 13:33:01;;;;;;;11.30;6.00;;;;;;;;;;4953661;29;20042;-59
2022/03/25 13:35:34;;;;;;;15.43;5.60;;;;;;;;;;4953708;29;20050;-58
2022/03/25 13:38:00;;;;;;;12.80;5.93;;;;;;;;;;4953598;29;20028;-59
2022/03/25 13:40:45;;;;;;;12.70;6.07;;;;;;;;;;4953292;29;20031;-57
2022/03/25 13:43:13;;;;;;;14.80;6.22;;;;;;;;;;4953169;29;20027;-59
2022/03/25 13:45:41;;;;;;;18.60;5.68;;;;;;;;;;4952811;29;20083;-63
2022/03/25 13:48:11;;;;;;;15.20;5.53;;;;;;;;;;4950627;28;20046;-64
2022/03/25 13:50:51;;;;;;;13.38;6.28;;;;;;;;;;4955855;28;20027;-58
2022/03/25 13:53:33;;;;;;;11.73;4.93;;;;;;;;;;4951721;28;20043;-60
2022/03/25 13:56:08;;;;;;;13.07;6.05;;;;;;;;;;4949228;29;20027;-58
2022/03/25 13:58:35;;;;;;;16.55;6.05;;;;;;;;;;4950464;28;20030;-58
2022/03/25 14:01:01;;;;;;;15.38;5.90;;;;;;;;;;4955216;28;20023;-57
2022/03/25 14:03:32;;;;;;;15.93;6.18;;;;;;;;;;4940309;29;20063;-61
2022/03/25 14:06:11;;;;;;;11.27;6.07;;;;;;;;;;4940099;29;20036;-59
2022/03/25 14:08:37;;;;;;;8.00;4.45;;;;;;;;;;4949612;29;20023;-60
2022/03/25 14:11:04;;;;;;;15.45;5.88;;;;;;;;;;4952673;29;20526;-58
2022/03/25 14:13:30;;;;;;;12.43;5.65;;;;;;;;;;4952902;29;20043;-57
2022/03/25 14:16:15;;;;;;;11.20;5.30;;;;;;;;;;4952852;29;20539;-56
2022/03/25 14:18:51;;;;;;;12.43;5.97;;;;;;;;;;4952553;29;20368;-58
2022/03/25 14:21:28;;;;;;;11.43;5.43;;;;;;;;;;4952216;29;20031;-57
2022/03/25 14:24:30;;;;;;;12.25;5.80;;;;;;;;;;4952307;29;20058;-62
2022/03/25 14:26:40;;;;;;;16.15;4.80;;;;;;;;;;4952292;29;20122;-57
2022/03/25 14:29:10;;;;;;;11.73;5.97;;;;;;;;;;4951870;28;20047;-62
2022/03/25 14:31:37;;;;;;;8.73;5.22;;;;;;;;;;4952428;29;20122;-57
2022/03/25 14:34:04;;;;;;;9.82;5.13;;;;;;;;;;4952165;29;20491;-57